Time;durP1;ratioP1;P1;durP2;ratioP2;P2;SDS_P1;SDS_P2;PMS_P1;PMS_P2;Temp;Humidity;BMP_temperature;BMP_pressure;BME280_temperature;BME280_humidity;BME280_pressure;Samples;Min_cycle;Max_cycle;Signal;HPM_P1;HPM_P2
2023/08/30 00:00:36;;;;;;;;;4.33;4.00;;;;;20.12;67.69;100153.97;5056283;28;45428;-76
2023/08/30 00:03:01;;;;;;;;;5.67;4.00;;;;;20.13;67.33;100146.91;5056044;28;45474;-75
2023/08/30 00:05:30;;;;;;;;;4.33;3.67;;;;;19.99;67.38;100132.06;5066562;28;45416;-75
2023/08/30 00:07:56;;;;;;;;;5.00;2.67;;;;;20.08;67.30;100154.06;5045211;28;45474;-75
2023/08/30 00:10:21;;;;;;;;;4.00;3.67;;;;;19.95;67.65;100129.50;5058867;28;46986;-75
2023/08/30 00:12:47;;;;;;;;;4.67;4.33;;;;;19.97;68.18;100155.06;5054612;28;46873;-75
2023/08/30 00:15:14;;;;;;;;;2.67;2.67;;;;;19.85;67.51;100140.22;5045215;28;45753;-75
2023/08/30 00:17:39;;;;;;;;;4.33;4.00;;;;;19.76;67.43;100124.47;5057496;28;45410;-75
2023/08/30 00:20:06;;;;;;;;;3.67;3.33;;;;;19.80;67.82;100141.22;5069840;28;45173;-75
2023/08/30 00:22:32;;;;;;;;;4.00;2.67;;;;;19.76;67.72;100139.50;5059676;28;46646;-76
2023/08/30 00:24:58;;;;;;;;;3.00;2.67;;;;;19.74;67.74;100120.09;5065852;28;45769;-75
2023/08/30 00:27:23;;;;;;;;;2.67;2.67;;;;;19.74;67.64;100109.50;5061404;28;45616;-75
2023/08/30 00:29:49;;;;;;;;;2.67;2.67;;;;;19.58;68.76;100108.81;5037366;28;45572;-75
2023/08/30 00:32:15;;;;;;;;;4.00;3.67;;;;;19.69;67.85;100112.16;5054471;28;45729;-75
2023/08/30 00:34:41;;;;;;;;;1.67;1.67;;;;;19.71;67.80;100117.44;5056136;28;45567;-75
2023/08/30 00:37:06;;;;;;;;;3.00;2.67;;;;;19.65;67.70;100111.31;5068585;27;45561;-77
2023/08/30 00:39:32;;;;;;;;;3.33;2.67;;;;;19.59;67.74;100094.66;5057822;28;45649;-76
2023/08/30 00:41:58;;;;;;;;;3.00;3.00;;;;;19.65;67.41;100108.69;5054404;28;45686;-75
2023/08/30 00:44:24;;;;;;;;;3.00;2.00;;;;;19.59;67.61;100107.91;5055828;28;45313;-75
2023/08/30 00:46:50;;;;;;;;;4.00;3.67;;;;;19.50;67.74;100093.03;5056080;28;45637;-75
2023/08/30 00:49:16;;;;;;;;;2.67;2.00;;;;;19.36;67.65;100079.06;5055604;28;45495;-75
2023/08/30 00:51:41;;;;;;;;;3.00;2.67;;;;;19.31;68.48;100080.91;5055670;28;45930;-75
2023/08/30 00:54:07;;;;;;;;;3.33;3.00;;;;;19.24;68.81;100088.06;5047102;28;45870;-75
2023/08/30 00:56:34;;;;;;;;;3.00;3.00;;;;;19.24;68.70;100094.25;5075431;28;45586;-84
2023/08/30 00:59:00;;;;;;;;;4.67;3.00;;;;;19.14;68.95;100076.72;5061049;27;45590;-85
2023/08/30 01:01:26;;;;;;;;;3.33;2.67;;;;;19.09;69.20;100083.84;5073759;28;45449;-83
2023/08/30 01:03:51;;;;;;;;;3.33;2.67;;;;;19.10;69.40;100080.31;5058902;28;45376;-85
2023/08/30 01:06:17;;;;;;;;;4.33;3.33;;;;;18.97;69.56;100068.09;5059124;28;45499;-85
2023/08/30 01:08:43;;;;;;;;;4.33;3.00;;;;;18.87;69.52;100072.63;5068118;28;45399;-84
2023/08/30 01:11:14;;;;;;;;;3.00;3.00;;;;;18.93;69.41;100076.97;5074571;27;45879;-83
2023/08/30 01:13:53;;;;;;;;;2.00;1.00;;;;;18.81;69.61;100060.34;5060309;28;45363;-77
2023/08/30 01:16:21;;;;;;;;;3.00;2.00;;;;;18.81;69.73;100056.81;5079977;28;45422;-85
2023/08/30 01:18:48;;;;;;;;;3.67;2.67;;;;;18.73;69.79;100056.88;5070302;28;45527;-85
2023/08/30 01:21:28;;;;;;;;;3.33;3.00;;;;;18.55;70.01;100038.56;5079684;28;46320;-85
2023/08/30 01:24:02;;;;;;;;;2.00;1.67;;;;;18.72;70.45;100063.06;5057311;28;45426;-76
2023/08/30 01:27:07;;;;;;;;;2.33;2.00;;;;;18.72;70.29;100063.06;5041206;28;45502;-85
2023/08/30 01:29:34;;;;;;;;;2.00;2.00;;;;;18.59;70.96;100041.16;5050794;28;45418;-84
2023/08/30 01:32:02;;;;;;;;;2.00;2.00;;;;;18.55;70.86;100042.09;5058893;28;45365;-84
2023/08/30 01:34:28;;;;;;;;;1.00;1.00;;;;;18.47;70.70;100028.94;5041034;28;45474;-85
2023/08/30 01:36:54;;;;;;;;;6.00;6.00;;;;;18.59;70.64;100048.22;5053442;28;45251;-85
2023/08/30 01:39:22;;;;;;;;;3.00;2.00;;;;;18.51;71.23;100032.44;5079945;28;45473;-84
2023/08/30 01:41:48;;;;;;;;;2.00;2.00;;;;;18.53;70.90;100035.94;5066193;28;46188;-84
2023/08/30 01:44:16;;;;;;;;;3.00;2.33;;;;;18.62;71.93;100034.94;5058937;28;45395;-79
2023/08/30 01:46:43;;;;;;;;;3.67;2.33;;;;;18.71;71.99;100039.28;5059266;28;46187;-85
2023/08/30 01:49:10;;;;;;;;;2.00;2.00;;;;;18.76;71.62;100037.44;5059632;28;45347;-85
2023/08/30 01:51:37;;;;;;;;;2.00;2.00;;;;;18.83;71.34;100042.66;5040695;28;47128;-86
2023/08/30 01:54:04;;;;;;;;;3.00;1.67;;;;;18.92;71.21;100048.75;5065095;28;45410;-84
2023/08/30 01:56:30;;;;;;;;;1.00;1.00;;;;;18.97;71.27;100039.00;5078048;28;45270;-85
2023/08/30 01:58:55;;;;;;;;;2.00;2.00;;;;;19.02;70.81;100038.03;5074992;28;45326;-85
2023/08/30 02:01:21;;;;;;;;;1.67;1.67;;;;;19.09;70.50;100038.81;5060671;28;46945;-84
2023/08/30 02:03:47;;;;;;;;;2.00;2.00;;;;;19.24;70.88;100049.22;5060750;28;45503;-85
2023/08/30 02:06:26;;;;;;;;;2.00;2.00;;;;;19.25;70.92;100044.78;5050945;28;45446;-85
2023/08/30 02:09:01;;;;;;;;;1.67;1.00;;;;;19.19;70.50;100031.66;5055413;28;45566;-85
2023/08/30 02:11:28;;;;;;;;;3.00;1.00;;;;;19.26;70.59;100047.44;5068470;28;46066;-85
2023/08/30 02:13:58;;;;;;;;;2.33;1.00;;;;;19.32;70.66;100048.22;5075997;28;45283;-85
2023/08/30 02:16:26;;;;;;;;;3.00;2.00;;;;;19.46;70.59;100057.75;5065639;28;45405;-85
2023/08/30 02:18:53;;;;;;;;;1.00;1.00;;;;;19.37;70.29;100038.47;5039782;28;45300;-85
2023/08/30 02:21:19;;;;;;;;;2.00;1.67;;;;;19.35;70.30;100032.31;5057729;28;45711;-85
2023/08/30 02:23:52;;;;;;;;;1.33;1.33;;;;;19.53;70.31;100044.41;5057692;28;45509;-84
2023/08/30 02:26:19;;;;;;;;;2.00;1.00;;;;;19.50;69.44;100029.44;5039804;28;45516;-82
2023/08/30 02:28:44;;;;;;;;;1.00;1.00;;;;;19.59;69.71;100041.66;5067488;28;45357;-85
2023/08/30 02:31:10;;;;;;;;;0.00;0.00;;;;;19.59;69.54;100037.22;5063121;28;45893;-81
2023/08/30 02:33:37;;;;;;;;;1.00;1.00;;;;;19.55;69.43;100021.41;5073151;28;45857;-76
2023/08/30 02:36:03;;;;;;;;;1.00;1.00;;;;;19.55;69.41;100019.63;5062923;28;45473;-77
2023/08/30 02:38:29;;;;;;;;;1.00;1.00;;;;;19.59;69.90;100033.72;5060813;27;45555;-77
2023/08/30 02:40:54;;;;;;;;;1.00;1.00;;;;;19.55;69.69;100029.38;5057119;28;46108;-76
2023/08/30 02:43:20;;;;;;;;;1.00;1.00;;;;;19.58;69.45;100024.91;5038841;28;45640;-76
2023/08/30 02:45:46;;;;;;;;;2.00;0.00;;;;;19.57;69.68;100032.88;5057758;28;45346;-78
2023/08/30 02:48:11;;;;;;;;;1.00;1.00;;;;;19.46;70.67;100025.97;5057721;28;45467;-77
2023/08/30 02:50:37;;;;;;;;;1.00;1.00;;;;;19.52;70.38;100043.53;5070087;28;45316;-76
2023/08/30 02:53:03;;;;;;;;;1.00;1.00;;;;;19.50;70.75;100040.03;5073300;28;45281;-79
2023/08/30 02:55:31;;;;;;;;;0.67;0.67;;;;;19.46;70.31;100025.97;5057469;28;45517;-79
2023/08/30 02:57:56;;;;;;;;;1.00;1.00;;;;;19.47;70.16;100008.28;5039295;28;45565;-78
2023/08/30 03:00:22;;;;;;;;;0.00;0.00;;;;;19.56;70.11;100015.22;5055870;28;48252;-78
2023/08/30 03:02:48;;;;;;;;;1.00;1.00;;;;;19.55;70.11;100008.16;5056943;28;45400;-76
2023/08/30 03:05:14;;;;;;;;;1.00;0.00;;;;;19.60;70.03;100022.22;5056203;28;45487;-77
2023/08/30 03:07:39;;;;;;;;;1.00;1.00;;;;;19.53;71.53;100021.44;5039146;28;45727;-80
2023/08/30 03:10:06;;;;;;;;;1.00;1.00;;;;;19.53;70.74;100021.44;5071594;28;45950;-79
2023/08/30 03:12:32;;;;;;;;;1.00;1.00;;;;;19.63;70.13;100024.81;5064176;28;45494;-77
2023/08/30 03:14:58;;;;;;;;;1.00;1.00;;;;;19.44;70.28;99989.81;5047474;28;45256;-79
2023/08/30 03:17:24;;;;;;;;;2.00;0.67;;;;;19.47;69.63;99981.78;5072593;28;45415;-79
2023/08/30 03:19:53;;;;;;;;;1.00;1.00;;;;;19.67;70.07;100014.13;5055953;28;46357;-78
2023/08/30 03:22:19;;;;;;;;;1.00;0.00;;;;;19.75;69.90;100015.84;5038429;28;45391;-77
2023/08/30 03:24:44;;;;;;;;;1.00;0.67;;;;;19.77;69.88;100011.38;5050077;28;45379;-76
2023/08/30 03:27:10;;;;;;;;;1.00;0.33;;;;;19.67;69.75;99978.81;5061819;28;45373;-78
2023/08/30 03:29:35;;;;;;;;;0.33;0.33;;;;;19.66;69.70;99985.03;5056804;28;45497;-78
2023/08/30 03:32:01;;;;;;;;;1.00;0.33;;;;;19.82;69.96;100004.25;5057317;28;45600;-77
2023/08/30 03:34:27;;;;;;;;;0.33;0.33;;;;;19.84;69.53;100021.00;5038864;28;45525;-76
2023/08/30 03:36:55;;;;;;;;;0.00;0.00;;;;;19.85;69.52;100013.00;5057049;28;45581;-78
2023/08/30 03:39:22;;;;;;;;;0.00;0.00;;;;;19.79;69.55;99991.91;5072325;28;45463;-79
2023/08/30 03:41:48;;;;;;;;;0.33;0.33;;;;;19.79;69.89;99997.19;5056883;28;45395;-78
2023/08/30 03:44:13;;;;;;;;;0.33;0.33;;;;;19.89;69.98;100003.22;5056617;28;45237;-76
2023/08/30 03:46:39;;;;;;;;;0.33;0.00;;;;;19.80;69.53;99983.06;5038420;28;45671;-76
2023/08/30 03:49:04;;;;;;;;;0.33;0.00;;;;;19.90;69.88;100002.34;5070156;28;45994;-76
2023/08/30 03:51:30;;;;;;;;;0.00;0.00;;;;;19.86;69.79;99998.84;5061219;28;45808;-76
2023/08/30 03:53:58;;;;;;;;;0.00;0.00;;;;;19.81;69.99;99979.50;5077078;27;45409;-76
2023/08/30 03:56:24;;;;;;;;;1.33;0.00;;;;;19.79;69.58;99976.00;5071299;28;45463;-76
2023/08/30 03:58:50;;;;;;;;;0.00;0.00;;;;;19.90;69.54;99994.38;5056944;28;45446;-75
2023/08/30 04:01:15;;;;;;;;;0.00;0.00;;;;;19.80;69.78;99974.25;5041821;28;45398;-76
2023/08/30 04:03:41;;;;;;;;;0.00;0.00;;;;;19.83;69.61;99983.00;5056001;28;45535;-76
2023/08/30 04:06:07;;;;;;;;;0.00;0.00;;;;;19.84;70.16;99978.59;5056224;28;45591;-76
2023/08/30 04:08:32;;;;;;;;;0.00;0.00;;;;;19.69;70.17;99961.13;5063570;28;45376;-76
2023/08/30 04:10:58;;;;;;;;;0.00;0.00;;;;;19.81;70.91;100000.69;5063807;28;45473;-77
2023/08/30 04:13:24;;;;;;;;;0.33;0.33;;;;;19.82;70.61;99988.34;5071932;28;45256;-81
2023/08/30 04:15:51;;;;;;;;;0.33;0.33;;;;;19.78;71.20;99986.66;5072709;28;45406;-76
2023/08/30 04:18:16;;;;;;;;;0.00;0.00;;;;;19.83;70.40;99988.28;5063418;28;46081;-77
2023/08/30 04:20:46;;;;;;;;;0.67;0.00;;;;;19.92;70.24;99994.38;5063974;28;45492;-76
2023/08/30 04:23:12;;;;;;;;;1.33;0.00;;;;;19.65;70.22;99952.34;5056217;28;45541;-78
2023/08/30 04:25:38;;;;;;;;;0.00;0.00;;;;;19.99;69.91;99994.19;5056103;28;45245;-76
2023/08/30 04:28:04;;;;;;;;;0.00;0.00;;;;;19.97;70.19;99988.06;5037762;28;45750;-76
2023/08/30 04:30:30;;;;;;;;;0.00;0.00;;;;;19.95;70.02;99981.03;5042333;28;45602;-77
2023/08/30 04:32:56;;;;;;;;;1.00;0.00;;;;;19.90;70.03;99986.44;5074639;28;45533;-76
2023/08/30 04:35:21;;;;;;;;;0.00;0.00;;;;;19.95;70.25;100002.25;5060117;28;45351;-76
2023/08/30 04:37:48;;;;;;;;;0.00;0.00;;;;;19.89;70.70;99997.91;5059589;28;45473;-76
2023/08/30 04:40:14;;;;;;;;;0.67;0.00;;;;;19.99;70.51;100006.59;5041680;28;45469;-76
2023/08/30 04:42:40;;;;;;;;;0.67;0.00;;;;;19.76;70.33;99961.94;5058143;28;45518;-76
2023/08/30 04:45:06;;;;;;;;;0.33;0.33;;;;;19.91;70.63;99988.16;5056247;28;45492;-78
2023/08/30 04:47:32;;;;;;;;;0.00;0.00;;;;;20.04;69.63;99992.34;5041020;28;46294;-77
2023/08/30 04:49:59;;;;;;;;;0.00;0.00;;;;;19.98;70.06;99979.22;5040992;28;45344;-76
2023/08/30 04:52:24;;;;;;;;;0.00;0.00;;;;;20.09;69.90;99991.41;5059281;28;45366;-76
2023/08/30 04:54:50;;;;;;;;;0.00;0.00;;;;;20.10;70.02;99985.22;5059328;28;45411;-76
2023/08/30 04:57:17;;;;;;;;;0.00;0.00;;;;;20.12;69.85;99988.72;5059016;28;45952;-76
2023/08/30 04:59:46;;;;;;;;;0.00;0.00;;;;;20.16;69.78;99995.72;5056561;27;45370;-77
2023/08/30 05:02:12;;;;;;;;;0.00;0.00;;;;;20.08;69.57;99979.06;5079483;28;45459;-77
2023/08/30 05:04:38;;;;;;;;;0.00;0.00;;;;;20.08;70.04;99984.38;5079418;28;46351;-72
2023/08/30 05:07:04;;;;;;;;;0.33;0.33;;;;;19.89;70.29;99955.50;5078313;28;46007;-74
2023/08/30 05:09:32;;;;;;;;;0.00;0.00;;;;;20.12;69.70;99984.28;5078524;28;45497;-74
2023/08/30 05:11:58;;;;;;;;;0.00;0.00;;;;;20.10;70.22;99990.50;5079072;28;45521;-75
2023/08/30 05:14:23;;;;;;;;;0.00;0.00;;;;;20.12;69.98;99988.72;5080066;27;45544;-74
2023/08/30 05:16:49;;;;;;;;;0.67;0.00;;;;;20.01;71.20;99981.78;5078793;28;45691;-76
2023/08/30 05:19:16;;;;;;;;;0.00;0.00;;;;;20.04;70.26;99988.84;5078800;27;45530;-73
2023/08/30 05:21:43;;;;;;;;;0.00;0.00;;;;;20.06;70.81;99990.56;5078694;28;45490;-74
2023/08/30 05:24:08;;;;;;;;;0.00;0.00;;;;;20.10;70.64;99988.72;5078805;28;45556;-74
2023/08/30 05:26:35;;;;;;;;;0.00;0.00;;;;;20.11;70.18;99986.94;5063827;28;46905;-74
2023/08/30 05:29:00;;;;;;;;;0.00;0.00;;;;;20.11;70.28;99982.50;5075014;28;45582;-77
2023/08/30 05:31:26;;;;;;;;;0.00;0.00;;;;;20.09;70.32;99986.09;5075228;28;45438;-74
2023/08/30 05:33:51;;;;;;;;;1.00;1.00;;;;;20.11;70.33;99992.25;5065646;28;45499;-75
2023/08/30 05:36:18;;;;;;;;;1.00;0.00;;;;;20.13;70.03;99993.97;5060535;28;45435;-74
2023/08/30 05:38:44;;;;;;;;;0.00;0.00;;;;;20.02;70.75;99972.09;5042570;28;45463;-75
2023/08/30 05:41:10;;;;;;;;;1.00;0.00;;;;;20.11;70.95;99994.91;5074027;28;45421;-82
2023/08/30 05:43:36;;;;;;;;;0.00;0.00;;;;;20.22;70.44;100000.91;5077066;27;45810;-82
2023/08/30 05:46:02;;;;;;;;;0.00;0.00;;;;;20.21;70.03;99994.72;5057909;28;45450;-83
2023/08/30 05:48:33;;;;;;;;;0.00;0.00;;;;;20.27;70.21;100006.97;5072292;28;45804;-81
2023/08/30 05:50:58;;;;;;;;;0.00;0.00;;;;;20.14;70.36;100001.03;5058336;28;45568;-82
2023/08/30 05:53:25;;;;;;;;;1.00;1.00;;;;;20.21;70.42;100005.34;5058615;28;45595;-79
2023/08/30 05:55:50;;;;;;;;;0.00;0.00;;;;;20.12;70.03;99992.22;5056497;28;46950;-76
2023/08/30 05:58:18;;;;;;;;;0.67;0.67;;;;;20.20;70.68;99998.25;5050188;28;45581;-82
2023/08/30 06:00:44;;;;;;;;;0.00;0.00;;;;;20.27;69.97;100001.66;5050679;28;45588;-81
2023/08/30 06:03:10;;;;;;;;;1.00;1.00;;;;;20.20;70.12;99989.44;5077856;28;45485;-82
2023/08/30 06:05:36;;;;;;;;;0.00;0.00;;;;;20.27;70.18;99999.91;5063029;28;46205;-83
2023/08/30 06:08:02;;;;;;;;;0.67;0.00;;;;;20.38;69.67;100006.78;5077199;28;45624;-79
2023/08/30 06:10:29;;;;;;;;;1.00;0.33;;;;;20.38;69.19;99997.03;5065891;28;45608;-79
2023/08/30 06:12:54;;;;;;;;;0.00;0.00;;;;;20.46;69.47;100008.38;5052475;28;45351;-83
2023/08/30 06:15:20;;;;;;;;;0.33;0.00;;;;;20.55;69.67;100003.78;5073739;28;45359;-81
2023/08/30 06:17:46;;;;;;;;;0.00;0.00;;;;;20.52;68.97;99993.25;5058414;28;45468;-74
2023/08/30 06:20:12;;;;;;;;;2.33;0.67;;;;;20.61;68.57;99996.63;5060065;28;46213;-83
2023/08/30 06:22:39;;;;;;;;;0.67;0.67;;;;;20.65;69.07;100010.69;5071609;28;45380;-83
2023/08/30 06:25:06;;;;;;;;;0.33;0.00;;;;;20.68;68.54;100005.34;5071606;28;45416;-81
2023/08/30 06:27:32;;;;;;;;;1.67;1.67;;;;;20.59;68.65;99990.50;5047008;28;45501;-76
2023/08/30 06:29:58;;;;;;;;;0.67;0.67;;;;;20.63;68.10;100000.13;5049408;28;45524;-77
2023/08/30 06:32:24;;;;;;;;;1.00;0.33;;;;;20.68;68.46;100015.97;5039897;28;45528;-76
2023/08/30 06:34:50;;;;;;;;;1.33;1.00;;;;;20.73;68.62;100014.09;5072383;28;46071;-77
2023/08/30 06:37:17;;;;;;;;;0.00;0.00;;;;;20.77;68.32;100018.44;5057396;28;45450;-80
2023/08/30 06:39:42;;;;;;;;;1.00;1.00;;;;;20.78;68.69;100019.31;5057255;28;45545;-80
2023/08/30 06:42:08;;;;;;;;;0.00;0.00;;;;;20.90;67.95;100023.50;5057840;28;46000;-81
2023/08/30 06:44:34;;;;;;;;;1.00;1.00;;;;;20.99;67.85;100024.16;5054728;28;47260;-81
2023/08/30 06:46:59;;;;;;;;;1.00;1.00;;;;;21.05;67.63;100029.34;5062429;28;45405;-77
2023/08/30 06:49:25;;;;;;;;;0.00;0.00;;;;;21.11;67.79;100019.47;5063418;27;45442;-83
2023/08/30 06:51:50;;;;;;;;;1.00;1.00;;;;;21.20;67.14;100029.91;5068933;28;45585;-79
2023/08/30 06:54:16;;;;;;;;;2.67;1.67;;;;;21.17;66.88;100025.56;5046681;27;45521;-79
2023/08/30 06:56:56;;;;;;;;;1.00;1.00;;;;;21.18;67.42;100037.91;5061466;27;45438;-84
2023/08/30 06:59:22;;;;;;;;;40.67;35.67;;;;;21.21;67.43;100047.63;5061048;27;45590;-80
2023/08/30 07:01:50;;;;;;;;;2.00;2.00;;;;;21.13;67.08;100023.88;5065542;27;45475;-83
2023/08/30 07:04:16;;;;;;;;;1.33;1.00;;;;;21.18;67.36;100045.00;5065846;27;45509;-80
2023/08/30 07:06:41;;;;;;;;;0.67;0.67;;;;;21.14;67.08;100035.38;5069169;28;45445;-79
2023/08/30 07:09:07;;;;;;;;;1.33;1.33;;;;;21.26;67.37;100048.38;5043679;28;45503;-82
2023/08/30 07:11:33;;;;;;;;;0.33;0.33;;;;;21.35;67.16;100047.31;5064901;27;45562;-84
2023/08/30 07:13:59;;;;;;;;;0.00;0.00;;;;;21.37;67.83;100030.44;5064512;27;45443;-80
2023/08/30 07:16:25;;;;;;;;;0.00;0.00;;;;;21.38;66.73;100016.22;5068066;27;45418;-83
2023/08/30 07:18:51;;;;;;;;;0.00;0.00;;;;;21.41;66.69;100015.28;5053924;28;46166;-80
2023/08/30 07:21:16;;;;;;;;;1.00;0.00;;;;;21.54;67.00;100040.69;5056232;28;45393;-84
2023/08/30 07:23:42;;;;;;;;;0.67;0.67;;;;;21.60;66.67;100045.00;5053869;28;46311;-77
2023/08/30 07:26:07;;;;;;;;;0.00;0.00;;;;;21.40;66.94;100032.13;5051860;28;45485;-79
2023/08/30 07:28:33;;;;;;;;;1.67;1.00;;;;;21.39;66.89;100035.72;5068495;28;45472;-83
2023/08/30 07:31:05;;;;;;;;;0.00;0.00;;;;;21.46;66.86;100069.22;5061497;28;47010;-82
2023/08/30 07:33:30;;;;;;;;;3.67;3.33;;;;;21.44;67.35;100065.72;5065658;27;45426;-74
2023/08/30 07:35:56;;;;;;;;;1.33;1.33;;;;;21.42;67.43;100063.06;5084446;27;45383;-74
2023/08/30 07:38:22;;;;;;;;;1.00;1.00;;;;;21.33;66.71;100047.34;5085820;27;45427;-73
2023/08/30 07:40:47;;;;;;;;;0.00;0.00;;;;;21.45;67.36;100073.66;5077771;27;45488;-72
2023/08/30 07:43:13;;;;;;;;;0.00;0.00;;;;;21.37;68.02;100077.38;5073045;28;45630;-75
2023/08/30 07:45:39;;;;;;;;;0.00;0.00;;;;;21.41;67.36;100071.97;5055039;28;45535;-75
2023/08/30 07:48:04;;;;;;;;;1.00;1.00;;;;;21.42;67.20;100081.66;5066125;28;45445;-84
2023/08/30 07:50:30;;;;;;;;;1.00;0.67;;;;;21.32;67.28;100060.66;5070560;27;45281;-75
2023/08/30 07:52:56;;;;;;;;;1.00;1.00;;;;;21.39;67.40;100076.44;5069518;27;46168;-77
2023/08/30 07:55:21;;;;;;;;;2.00;2.00;;;;;21.38;67.79;100081.78;5071116;28;45536;-76
2023/08/30 07:57:47;;;;;;;;;1.00;0.67;;;;;21.37;67.41;100090.66;5065182;28;45660;-76
2023/08/30 08:00:13;;;;;;;;;1.00;1.00;;;;;21.36;68.28;100092.44;5058599;28;45399;-74
2023/08/30 08:02:39;;;;;;;;;2.67;2.67;;;;;21.26;68.33;100104.16;5074124;28;45545;-75
2023/08/30 08:05:06;;;;;;;;;1.00;0.67;;;;;21.21;68.43;100095.44;5054528;28;45339;-75
2023/08/30 08:07:31;;;;;;;;;2.00;1.67;;;;;21.19;68.12;100076.00;5051877;28;45433;-75
2023/08/30 08:09:57;;;;;;;;;0.00;0.00;;;;;21.28;66.89;100088.19;5058773;28;45528;-76
2023/08/30 08:12:23;;;;;;;;;0.00;0.00;;;;;21.25;67.54;100074.06;5077779;28;45544;-75
2023/08/30 08:14:48;;;;;;;;;1.00;1.00;;;;;21.29;67.09;100071.34;5079708;28;45514;-76
2023/08/30 08:17:15;;;;;;;;;0.67;0.00;;;;;21.60;67.43;100098.16;5080075;28;45544;-77
2023/08/30 08:19:42;;;;;;;;;1.00;0.00;;;;;21.77;66.12;100095.97;5079597;27;45634;-73
2023/08/30 08:22:08;;;;;;;;;2.33;1.00;;;;;21.78;67.06;100096.84;5068728;28;46794;-74
2023/08/30 08:24:34;;;;;;;;;0.00;0.00;;;;;21.75;66.79;100094.28;5059269;28;45371;-75
2023/08/30 08:27:01;;;;;;;;;1.00;1.00;;;;;21.80;66.76;100097.69;5059720;28;45590;-75
2023/08/30 08:29:30;;;;;;;;;1.00;1.00;;;;;21.79;66.47;100091.50;5057219;28;45623;-74
2023/08/30 08:31:56;;;;;;;;;1.67;1.67;;;;;21.79;66.43;100103.94;5058955;28;46345;-74
2023/08/30 08:34:21;;;;;;;;;4.33;4.00;;;;;21.77;66.30;100116.38;5070171;28;45905;-76
2023/08/30 08:36:47;;;;;;;;;1.00;1.00;;;;;21.74;66.59;100117.31;5078797;28;45472;-78
2023/08/30 08:39:14;;;;;;;;;3.67;3.00;;;;;21.68;66.57;100112.13;5077443;28;45495;-74
2023/08/30 08:41:42;;;;;;;;;0.00;0.00;;;;;21.66;66.60;100132.56;5067636;28;45865;-74
2023/08/30 08:44:09;;;;;;;;;1.00;1.00;;;;;21.61;67.33;100139.78;5071247;28;45523;-74
2023/08/30 08:46:36;;;;;;;;;6.33;5.67;;;;;21.56;67.43;100139.84;5077691;28;45502;-73
2023/08/30 08:49:13;;;;;;;;;1.00;1.00;;;;;21.63;67.77;100143.28;5057643;28;45479;-74
2023/08/30 08:51:40;;;;;;;;;0.33;0.33;;;;;21.60;67.93;100149.50;5040333;28;45552;-74
2023/08/30 08:54:06;;;;;;;;;0.00;0.00;;;;;21.68;67.55;100143.16;5069908;28;45846;-74
2023/08/30 08:56:33;;;;;;;;;0.00;0.00;;;;;21.72;67.03;100139.53;5077490;27;45525;-74
2023/08/30 08:59:00;;;;;;;;;3.00;3.00;;;;;21.90;66.96;100140.91;5059099;28;45568;-73
2023/08/30 09:01:26;;;;;;;;;1.00;0.00;;;;;22.29;66.57;100140.91;5040718;28;46442;-74
2023/08/30 09:03:52;;;;;;;;;0.00;0.00;;;;;22.35;65.59;100130.97;5058654;28;45514;-74
2023/08/30 09:06:19;;;;;;;;;0.00;0.00;;;;;22.68;65.25;100144.34;5059172;28;45384;-74
2023/08/30 09:08:44;;;;;;;;;1.67;0.00;;;;;22.80;64.86;100156.41;5042205;28;45228;-73
2023/08/30 09:11:10;;;;;;;;;1.00;1.00;;;;;22.85;64.39;100162.50;5040657;28;46756;-74
2023/08/30 09:13:37;;;;;;;;;0.00;0.00;;;;;22.80;64.85;100159.09;5040948;28;45306;-74
2023/08/30 09:16:02;;;;;;;;;2.00;1.00;;;;;22.88;65.04;100167.78;5059433;28;45415;-75
2023/08/30 09:18:28;;;;;;;;;1.00;0.00;;;;;23.01;64.58;100170.97;5058601;28;45458;-75
2023/08/30 09:21:11;;;;;;;;;0.00;0.00;;;;;23.12;63.80;100179.56;5059348;28;45430;-74
2023/08/30 09:23:37;;;;;;;;;0.33;0.00;;;;;23.30;64.46;100174.63;5057807;28;45241;-75
2023/08/30 09:26:04;;;;;;;;;0.00;0.00;;;;;23.50;63.50;100177.63;5073903;28;45496;-74
2023/08/30 09:28:31;;;;;;;;;0.67;0.00;;;;;23.73;63.24;100173.38;5063011;28;45421;-75
2023/08/30 09:31:02;;;;;;;;;0.00;0.00;;;;;23.79;62.86;100155.41;5068428;28;45688;-75
2023/08/30 09:33:32;;;;;;;;;0.00;0.00;;;;;23.81;61.30;100168.72;5058480;28;46173;-75
2023/08/30 09:35:59;;;;;;;;;0.67;0.33;;;;;23.74;62.82;100170.66;5059509;28;45327;-76
2023/08/30 09:38:25;;;;;;;;;0.00;0.00;;;;;23.59;62.58;100171.13;5075936;28;45710;-75
2023/08/30 09:40:51;;;;;;;;;0.00;0.00;;;;;23.35;62.43;100178.03;5068068;28;45914;-76
2023/08/30 09:43:23;;;;;;;;;0.00;0.00;;;;;23.17;62.82;100185.63;5056529;28;45280;-75
2023/08/30 09:45:50;;;;;;;;;1.00;1.00;;;;;22.94;64.11;100188.91;5072988;28;45612;-75
2023/08/30 09:48:24;;;;;;;;;0.67;0.67;;;;;22.93;64.08;100189.81;5063990;28;45481;-73
2023/08/30 09:50:56;;;;;;;;;1.67;0.33;;;;;22.74;64.68;100200.09;5076151;28;46755;-75
2023/08/30 09:53:26;;;;;;;;;0.33;0.00;;;;;22.83;65.20;100201.63;5061117;27;45405;-74
2023/08/30 09:55:53;;;;;;;;;0.00;0.00;;;;;22.88;64.11;100183.75;5057649;28;45845;-74
2023/08/30 09:58:21;;;;;;;;;0.00;0.00;;;;;22.75;64.53;100199.16;5043664;28;45553;-75
2023/08/30 10:00:48;;;;;;;;;0.00;0.00;;;;;22.79;64.40;100174.19;5069178;28;45682;-74
2023/08/30 10:03:15;;;;;;;;;0.00;0.00;;;;;22.97;64.01;100183.47;5069724;28;45777;-75
2023/08/30 10:05:43;;;;;;;;;0.00;0.00;;;;;22.98;63.92;100197.69;5061165;28;45338;-74
2023/08/30 10:08:10;;;;;;;;;1.00;1.00;;;;;22.89;64.52;100181.97;5057916;28;45474;-75
2023/08/30 10:10:39;;;;;;;;;0.00;0.00;;;;;22.84;64.81;100177.63;5065442;28;45189;-74
2023/08/30 10:13:06;;;;;;;;;2.00;1.00;;;;;22.91;65.24;100190.78;5064597;28;45541;-75
2023/08/30 10:15:35;;;;;;;;;0.00;0.00;;;;;22.93;64.39;100191.59;5073092;28;45326;-74
2023/08/30 10:18:02;;;;;;;;;0.00;0.00;;;;;22.86;64.80;100192.66;5056526;28;45464;-75
2023/08/30 10:20:29;;;;;;;;;0.00;0.00;;;;;22.86;64.65;100200.66;5038912;28;47592;-75
2023/08/30 10:22:57;;;;;;;;;0.00;0.00;;;;;22.91;65.02;100209.41;5050964;28;45412;-75
2023/08/30 10:25:29;;;;;;;;;0.00;0.00;;;;;22.93;64.88;100208.44;5059944;28;45460;-74
2023/08/30 10:27:56;;;;;;;;;0.00;0.00;;;;;22.91;64.70;100204.09;5062211;28;45909;-75
2023/08/30 10:30:23;;;;;;;;;0.00;0.00;;;;;22.87;64.84;100215.75;5066865;28;45554;-74
2023/08/30 10:32:49;;;;;;;;;0.00;0.00;;;;;22.82;65.08;100210.53;5056353;28;45347;-74
2023/08/30 10:35:17;;;;;;;;;0.00;0.00;;;;;22.88;65.32;100218.38;5057188;28;45467;-74
2023/08/30 10:37:56;;;;;;;;;0.33;0.33;;;;;22.78;64.67;100222.16;5057267;28;45620;-74
2023/08/30 10:40:22;;;;;;;;;0.00;0.00;;;;;22.78;64.92;100217.72;5057103;28;45933;-74
2023/08/30 10:43:02;;;;;;;;;0.00;0.00;;;;;22.86;64.70;100216.66;5055478;28;45670;-74
2023/08/30 10:45:28;;;;;;;;;0.00;0.00;;;;;22.97;64.26;100218.13;5040245;28;45528;-74
2023/08/30 10:47:59;;;;;;;;;0.00;0.00;;;;;23.03;64.19;100209.13;5067168;28;45571;-73
2023/08/30 10:50:30;;;;;;;;;0.00;0.00;;;;;23.09;63.96;100216.09;5048449;28;45460;-74
2023/08/30 10:52:56;;;;;;;;;0.00;0.00;;;;;23.11;63.61;100220.44;5064999;28;45427;-73
2023/08/30 10:55:23;;;;;;;;;5.67;5.00;;;;;23.02;63.31;100220.72;5065693;28;45447;-74
2023/08/30 10:58:00;;;;;;;;;0.00;0.00;;;;;23.06;63.55;100222.38;5046979;28;45536;-74
2023/08/30 11:00:29;;;;;;;;;0.67;0.33;;;;;23.15;63.49;100208.78;5059721;28;46040;-72
2023/08/30 11:02:55;;;;;;;;;0.00;0.00;;;;;23.43;62.79;100230.22;5058799;28;45451;-72
2023/08/30 11:05:24;;;;;;;;;2.67;2.00;;;;;23.47;62.73;100219.47;5065506;28;45493;-72
2023/08/30 11:07:50;;;;;;;;;1.00;0.00;;;;;23.61;62.82;100220.81;5069086;27;45774;-72
2023/08/30 11:10:17;;;;;;;;;0.33;0.33;;;;;23.51;62.37;100224.66;5058843;28;45637;-73
2023/08/30 11:12:49;;;;;;;;;0.00;0.00;;;;;23.14;64.14;100203.50;5067797;28;45465;-73
2023/08/30 11:15:16;;;;;;;;;0.00;0.00;;;;;22.96;63.49;100170.19;5046224;28;45514;-76
2023/08/30 11:17:42;;;;;;;;;0.00;0.00;;;;;23.20;64.58;100212.22;5063919;28;47031;-75
2023/08/30 11:20:13;;;;;;;;;12.00;10.33;;;;;23.20;64.72;100206.88;5065816;28;45545;-74
2023/08/30 11:22:43;;;;;;;;;2.00;2.00;;;;;23.31;64.44;100206.56;5070736;27;45445;-78
2023/08/30 11:25:10;;;;;;;;;0.00;0.00;;;;;23.20;63.90;100200.69;5067715;28;45447;-75